This is the latest recevied weather packets stored in our database for station/object CT2IRJ-11. If no packets are shown the sender has not sent any weather packets the latest 10 day(s).
| Time | Temp. | Humidity | Pressure | Rain* | Wind** | Luminosity | Snow |
|---|---|---|---|---|---|---|---|
| 1777112014 | 23.33° C | 61% | 1016.6 hPa | 0 mm | - | 714 W/m² | - |
| 1777111709 | 22.78° C | 62% | 1016.6 hPa | 0 mm | - | 576 W/m² | - |
| 1777111410 | 22.22° C | 64% | 1016.6 hPa | 0 mm | - | 597 W/m² | - |
| 1777111110 | 22.78° C | 63% | 1016.6 hPa | 0 mm | - | 597 W/m² | - |
| 1777110810 | 22.22° C | 63% | 1016.6 hPa | 0 mm | - | 561 W/m² | - |
| 1777110509 | 21.11° C | 65% | 1016.6 hPa | 0 mm | - | 518 W/m² | - |
| 1777110209 | 20.56° C | 70% | 1016.6 hPa | 0 mm | - | 554 W/m² | - |
| 1777109910 | 21.67° C | 64% | 1016.6 hPa | 0 mm | - | 563 W/m² | - |
| 1777109610 | 21.11° C | 66% | 1016.6 hPa | 0 mm | - | 542 W/m² | - |
| 1777109309 | 20.56° C | 69% | 1016.9 hPa | 0 mm | - | 501 W/m² | - |
| 1777109010 | 20.56° C | 68% | 1016.9 hPa | 0 mm | - | 502 W/m² | - |
| 1777108711 | 20° C | 70% | 1016.9 hPa | 0 mm | - | 475 W/m² | - |
| 1777108409 | 19.44° C | 74% | 1016.9 hPa | 0 mm | - | 440 W/m² | - |
| 1777108110 | 20° C | 73% | 1016.9 hPa | 0 mm | - | 432 W/m² | - |
| 1777107810 | 19.44° C | 72% | 1016.6 hPa | 0 mm | - | 405 W/m² | - |
| 1777107510 | 19.44° C | 74% | 1016.6 hPa | 0 mm | - | 343 W/m² | - |
| 1777107209 | 19.44° C | 74% | 1016.9 hPa | 0 mm | - | 307 W/m² | - |
| 1777106910 | 18.33° C | 77% | 1016.9 hPa | 0 mm | - | 324 W/m² | - |
| 1777106610 | 17.78° C | 78% | 1016.9 hPa | 0 mm | - | 290 W/m² | - |
| 1777106310 | 17.78° C | 79% | 1016.9 hPa | 0 mm | - | 266 W/m² | - |
| 1777106009 | 17.78° C | 80% | 1016.6 hPa | 0 mm | - | 278 W/m² | - |
| 1777105710 | 17.78° C | 79% | 1016.9 hPa | 0 mm | - | 247 W/m² | - |
| 1777105411 | 17.78° C | 80% | 1016.9 hPa | 0 mm | - | 226 W/m² | - |
| 1777105110 | 17.78° C | 78% | 1016.6 hPa | 0 mm | - | 220 W/m² | - |
| 1777104809 | 17.22° C | 82% | 1016.6 hPa | 0 mm | - | 210 W/m² | - |
* Rain latest hour (hover to see other rain measurements)
** Current wind speed in m/s (hover to see current wind gust speed)